Terminal Aerodrome Forecast
Issued by NWS

Home | Current Version | Previous Version | Text Only | Print | Product List | Glossary On
Versions: 1 2 3 4 5 6 7 8 9 10 11 12 13 14 15 16 17
361
FTUS46 KMTR 162341
TAFOAK
TAF
KOAK 162341Z 1700/1806 27005KT P6SM FEW060 FEW200
     FM170500 06004KT P6SM FEW050
     FM171700 12004KT P6SM FEW009 BKN200
     FM172100 24007KT P6SM SCT100 BKN200
     FM180300 13003KT P6SM BKN100=

USA.gov is the U.S. government's official web portal to all federal, state and local government web resources and services.